Pays
Station

 

Conditions  météo  pour  Pakanbaru/Simpangtiga  -  Indonésie    Indonésie

  
33 °C
    
 
 

METAR pour Pakanbaru/Simpangtiga :

WIBB 230600Z 32006KT 9999 SCT015 33/24 Q1008

 

Voici le bulletin pour Pakanbaru/Simpangtiga - Indonésie.
 
Le bulletin a été fait il y a 37 minutes, à 06:00 UTC .
Le vent soufflait à la vitesse de 3.1 mètres par seconde de Nord-ouest (320°).
 
La température était de 33 °C, avec un point de rosée à 24 °C.
La température ressentie était de 39 °C.
 
La pression atmosphérique était de 1008 hPa.
L'humidité relative était de 59.3%.
 
Il y avait 3 à 4/8ème de nébulosité à une hauteur de 457 mètres.
 
La visibilité globale était de supérieure à 10 kilomètres.
 

 
 
 

Pays :   A   B   C   D   E   F   G   H   I   J   K   L   M   N   O   P   Q   R   S   T   U   V   W   Y   Z

 

Partenaires :  Info Météo avec Met'info
Météo Marine avec MeteoMarine.net
Infos Site  |  Infos Légales  |  Crédits  |  Confidentialité
Contactez-nous  |  Ajouter aux favoris
© 2013-2019 METAR - Tous droits réservés